Date,TemperatureHighF,TemperatureAvgF,TemperatureLowF,DewpointHighF,DewpointAvgF,DewpointLowF,HumidityHigh,HumidityAvg,HumidityLow,PressureMaxIn,PressureMinIn,WindSpeedMaxMPH,WindSpeedAvgMPH,GustSpeedMaxMPH,PrecipitationSumIn
2013-1-1,41.7,36.2,31.5,35.6,31.6,23.3,100,84,51,29.32,28.94,13,6,28,0.04
2013-1-2,37.8,36.0,33.6,33.1,26.8,21.0,96,69,57,29.29,29.00,10,5,20,0.00
2013-1-3,41.0,36.0,33.3,23.6,19.0,15.2,61,50,44,29.29,29.24,13,6,23,0.00
2013-1-4,34.0,30.8,27.3,19.2,15.0,12.5,67,52,47,29.53,29.29,7,4,13,0.00
2013-1-5,34.3,33.1,31.5,18.0,16.0,14.2,53,49,45,29.44,29.00,10,7,21,0.00
2013-1-6,33.6,31.9,30.2,18.7,15.9,13.3,55,51,48,29.12,28.79,9,6,20,0.00
2013-1-7,33.7,30.4,28.2,20.1,13.8,11.2,62,50,45,29.09,28.79,9,5,19,0.00
2013-1-8,28.4,21.7,14.4,14.5,11.3,7.5,77,64,49,29.68,29.06,6,1,10,0.00
2013-1-9,23.5,16.8,13.5,13.0,9.1,6.2,78,72,53,29.77,29.59,6,2,10,0.00
2013-1-10,30.4,20.8,13.6,15.8,11.6,5.6,78,68,54,29.83,29.59,6,2,12,0.00
2013-1-11,28.8,24.6,16.0,21.8,15.3,10.3,82,68,52,29.80,29.59,7,2,13,0.00
2013-1-12,38.8,30.7,20.3,34.4,24.9,16.0,92,80,53,29.80,29.53,8,4,18,0.00
2013-1-13,43.5,40.7,38.7,37.7,34.0,29.0,95,78,58,29.59,29.35,12,6,23,0.00
2013-1-14,43.3,40.2,34.7,37.4,31.0,14.7,88,71,44,29.59,29.18,10,4,25,0.00
2013-1-15,34.2,26.2,20.5,17.4,11.7,9.3,69,54,44,29.91,29.59,5,2,11,0.00
2013-1-16,28.0,25.2,22.3,17.0,10.9,9.2,78,54,48,29.85,29.59,6,2,11,0.00
2013-1-17,20.1,13.8,9.7,14.1,8.4,4.5,79,79,76,29.65,29.35,1,0,2,0.00
2013-1-18,13.5,4.9,-3.1,8.2,-0.2,-8.0,79,79,79,29.88,29.62,1,0,2,0.00
2013-1-19,23.9,19.1,8.4,11.0,6.2,3.2,83,58,47,29.88,29.62,12,5,22,0.00
2013-1-20,28.9,23.5,15.5,16.8,10.4,5.2,81,58,48,29.65,29.53,9,3,17,0.00
2013-1-21,37.6,24.6,13.6,21.9,15.9,9.7,88,71,49,29.59,29.38,12,3,24,0.00
2013-1-22,34.5,31.1,23.5,23.8,19.3,17.3,80,62,53,29.41,29.12,7,3,15,0.00
2013-1-23,42.2,32.3,26.6,25.3,19.7,13.9,75,60,50,29.15,29.00,9,5,15,0.00
2013-1-24,42.1,31.0,26.1,26.4,19.1,13.7,79,61,52,29.20,29.06,6,2,10,0.00
2013-1-25,32.6,17.8,-4.7,28.4,9.4,-14.6,94,70,47,29.32,29.00,6,1,9,0.00
2013-1-26,12.0,-7.6,-15.7,0.8,-17.2,-25.1,62,62,62,29.59,29.32,3,1,6,0.00
2013-1-27,7.3,-9.3,-20.6,-3.0,-18.8,-29.5,62,62,62,29.80,29.56,15,3,28,0.00
2013-1-28,10.3,3.5,-3.8,-0.2,-6.6,-13.6,62,62,62,29.83,29.53,17,9,38,0.00
2013-1-29,12.2,7.6,2.1,1.6,-2.7,-7.9,62,62,62,29.59,29.41,14,6,25,0.00
2013-1-30,26.8,21.1,12.2,19.3,9.2,-1.5,80,60,49,29.59,29.32,9,4,17,0.00
2013-1-31,38.1,29.6,24.8,31.9,25.9,19.5,95,86,76,29.62,29.38,6,1,11,0.00
2013-2-1,34.4,25.7,14.2,26.3,18.5,11.5,97,76,52,29.68,29.38,10,3,22,0.00
2013-2-2,41.5,33.3,27.5,22.5,19.2,17.3,73,56,44,29.38,29.09,8,5,15,0.00
2013-2-3,36.3,33.0,31.3,28.1,22.2,18.2,83,65,56,29.20,28.97,9,3,15,0.00
2013-2-4,39.0,34.0,29.1,26.7,23.3,18.3,79,65,54,29.35,29.18,7,3,15,0.00
2013-2-5,39.7,27.5,16.5,18.3,13.3,7.5,72,56,41,29.35,29.18,6,2,10,0.00
2013-2-6,33.1,24.9,19.0,25.4,19.0,10.6,89,78,67,29.35,29.18,3,0,7,0.00
2013-2-7,30.2,24.5,19.4,22.4,15.2,11.7,90,68,49,29.32,29.00,9,4,18,0.00
2013-2-8,34.5,28.0,23.4,26.7,20.7,11.7,86,74,55,29.47,29.06,6,2,9,0.00
2013-2-9,47.1,36.5,31.3,30.9,21.7,15.6,74,55,42,29.44,28.76,10,6,20,0.00
2013-2-10,40.3,36.4,31.6,32.9,28.9,23.5,96,75,57,29.20,28.70,10,4,22,0.00
2013-2-11,34.3,25.1,12.9,31.0,19.4,7.4,97,80,52,29.47,29.18,6,1,9,0.00
2013-2-12,22.6,21.5,20.3,15.5,14.6,13.6,81,75,68,29.47,29.41,6,4,10,0.00
2013-2-14,30.9,29.9,29.5,26.7,26.0,20.7,88,86,66,29.20,29.09,3,1,7,0.00
2013-2-15,34.0,27.7,21.0,28.8,23.4,12.6,92,84,68,29.59,29.20,2,0,6,0.00
2013-2-16,26.2,21.4,18.6,18.1,12.1,8.4,83,68,52,29.68,29.47,6,2,12,0.00
2013-2-17,27.1,23.7,16.5,21.8,14.7,8.8,89,69,52,29.47,29.26,9,3,15,0.00
2013-2-18,27.0,11.8,-1.7,11.6,1.5,-13.9,83,63,48,29.59,29.44,5,1,9,0.00
2013-2-19,22.4,7.2,-3.5,9.4,-5.4,-15.8,68,56,49,29.56,29.00,8,2,14,0.00
2013-2-20,106.3,20.3,12.0,17.8,7.8,0.9,71,58,44,29.03,28.76,8,3,16,0.00
2013-2-21,38.7,22.9,16.5,17.9,8.7,5.4,71,55,42,29.00,28.82,6,2,10,0.00
2013-2-22,29.3,21.9,13.0,19.2,14.4,7.7,85,73,58,29.18,28.88,5,1,8,0.00
2013-2-23,30.8,22.1,11.5,17.3,10.6,6.5,84,62,43,29.12,28.85,10,4,23,0.00
2013-2-24,37.6,27.9,20.7,17.4,13.0,9.0,78,54,42,29.32,29.03,7,4,12,0.00
2013-2-25,43.1,29.1,23.2,18.8,10.5,7.3,52,46,38,29.38,29.29,12,6,20,0.00
2013-2-26,45.9,32.8,28.4,16.7,10.8,7.7,44,40,31,29.29,29.06,12,8,23,0.00
2013-2-27,44.7,31.2,27.9,20.6,10.9,7.7,46,42,38,29.06,28.94,12,7,24,0.00
2013-2-28,40.3,30.7,21.0,19.0,14.1,9.6,72,51,40,29.12,29.00,9,4,18,0.00
2013-3-1,41.5,26.2,17.6,27.8,18.6,11.5,86,73,57,29.59,29.06,3,1,6,0.00
2013-3-2,45.1,25.1,12.6,24.4,15.7,8.7,88,70,40,29.77,29.59,5,1,9,0.00
2013-3-3,44.6,31.0,25.2,20.3,11.4,7.6,55,44,35,30.09,29.77,9,5,15,0.00
2013-3-4,50.8,33.6,26.6,22.9,12.4,7.4,53,42,31,30.09,29.94,7,3,13,0.00
2013-3-5,46.4,29.1,19.4,22.1,13.5,7.3,69,53,38,29.94,29.65,3,1,8,0.00
2013-3-6,45.7,30.7,21.4,23.0,15.0,9.2,67,52,39,29.65,29.53,5,2,10,0.00
2013-3-7,45.1,35.7,31.1,22.4,16.6,12.9,61,45,38,29.53,29.24,14,6,26,0.00
2013-3-8,37.9,36.4,35.4,28.0,24.7,20.2,72,63,49,29.44,29.38,8,4,16,0.00
2013-3-9,45.1,37.4,33.1,28.2,23.0,19.7,82,57,42,29.77,29.44,9,2,19,0.00
2013-3-10,36.9,31.6,24.8,29.0,26.7,22.3,90,82,66,29.85,29.74,3,1,6,0.00
2013-3-11,48.5,30.8,20.1,27.7,20.0,8.7,97,69,32,29.97,29.85,15,3,26,0.00
2013-3-12,35.1,28.0,23.2,27.2,3.7,-0.3,80,35,30,29.91,29.68,20,12,40,0.00
2013-3-13,32.3,23.4,17.1,4.3,-2.0,-6.7,34,32,30,29.71,29.47,17,11,35,0.00
2013-3-14,29.9,19.0,13.5,4.2,-4.0,-9.2,38,35,33,29.56,29.44,16,10,35,0.00
2013-3-15,37.2,23.6,18.5,7.8,-1.0,-4.8,37,34,30,29.56,29.41,14,8,30,0.00
2013-3-16,41.1,23.5,14.5,12.3,0.1,-7.6,44,36,31,29.74,29.47,8,4,17,0.00
2013-3-17,36.9,19.2,5.5,14.8,0.6,-11.3,51,44,36,29.83,29.71,3,1,6,0.00
2013-3-18,36.9,18.9,5.9,13.1,1.0,-9.2,53,45,36,29.71,29.53,3,1,6,0.00
2013-3-19,36.9,22.1,9.7,9.0,1.2,-6.3,58,40,30,29.59,29.50,10,5,26,0.00
2013-3-20,33.4,19.1,8.2,16.0,-3.7,-10.3,100,36,31,29.65,29.53,9,4,20,0.00
2013-3-21,40.5,19.1,6.4,10.9,-2.5,-11.8,44,38,30,29.88,29.65,6,2,10,0.00
2013-3-22,30.9,25.0,19.9,24.0,15.8,4.3,81,68,46,29.83,29.47,7,4,13,0.00
2013-3-23,38.5,29.3,19.8,27.5,22.3,14.2,90,76,55,29.56,29.44,3,1,7,0.04
2013-3-24,28.0,22.8,16.9,21.1,17.1,13.9,92,79,58,29.53,29.24,2,0,6,0.00
2013-3-25,24.8,18.5,5.0,20.7,12.5,-3.0,93,78,55,29.38,29.12,6,2,12,0.00
2013-3-26,29.5,8.8,-6.3,8.1,-5.4,-18.0,69,54,37,29.85,29.38,3,1,6,0.00
2013-3-27,35.6,11.5,-1.8,10.2,-7.8,-20.5,48,41,34,29.94,29.83,5,2,9,0.00
2013-3-28,40.8,24.7,11.8,17.9,7.3,-5.5,72,47,40,29.88,29.59,9,2,17,0.00
2013-3-29,45.9,35.3,27.0,28.3,18.0,9.8,67,49,42,29.62,29.53,9,5,18,0.04
2013-3-30,48.9,35.5,25.5,29.8,22.5,15.4,87,60,44,29.91,29.62,3,1,5,0.00
2013-3-31,52.9,38.1,27.5,32.2,26.6,20.0,93,66,42,29.94,29.77,5,2,7,0.00
2013-4-1,47.5,33.2,22.5,25.3,18.9,13.7,80,57,39,29.80,29.59,5,1,7,0.00
2013-4-2,50.9,33.8,22.6,25.2,17.1,10.2,75,52,35,29.83,29.65,3,2,7,0.00
2013-4-3,54.3,37.6,28.0,25.1,17.1,11.7,60,44,30,29.94,29.83,6,2,9,0.00
2013-4-4,45.8,34.5,28.1,15.3,10.1,3.1,50,37,28,29.85,29.44,13,7,30,0.00
2013-4-5,41.6,29.0,21.9,11.7,2.5,-2.8,33,32,29,29.44,29.20,12,8,23,0.00
2013-4-6,27.0,24.8,23.9,21.7,20.7,19.4,91,84,79,29.20,29.15,2,1,5,0.00
2013-4-7,33.1,22.7,4.8,21.7,12.5,-5.0,92,66,43,29.47,29.20,5,1,7,0.00
2013-4-8,24.5,13.3,0.1,10.6,3.3,-9.3,78,64,54,29.47,29.00,2,1,4,0.00
2013-4-9,35.4,20.1,12.6,11.7,7.4,-0.5,83,60,37,29.15,28.82,5,2,8,0.00
2013-4-10,33.2,17.6,4.5,11.2,0.2,-11.8,56,46,37,29.65,29.15,5,2,7,0.00
2013-4-11,40.0,18.4,2.7,13.2,0.4,-10.9,59,46,31,29.74,29.62,5,1,6,0.00
2013-4-12,46.8,19.0,-4.6,16.1,-2.7,-21.0,55,39,28,29.77,29.71,12,3,24,0.00
2013-4-13,47.7,27.0,8.8,15.7,3.2,-10.7,53,36,29,30.03,29.74,14,4,22,0.00
2013-4-14,49.0,29.5,10.9,17.3,5.8,-7.2,48,37,27,30.18,30.03,5,2,10,0.00
2013-4-15,53.9,33.3,16.7,19.7,9.2,-0.1,50,37,26,30.09,29.94,8,4,16,0.00
2013-4-16,47.0,30.2,14.4,20.1,9.8,1.5,58,43,31,29.94,29.71,8,2,15,0.00
2013-4-17,49.5,27.6,9.9,19.6,7.6,-3.1,60,44,29,29.83,29.74,5,1,7,0.00
2013-4-18,53.0,31.0,12.6,23.7,11.5,3.0,73,47,28,29.85,29.77,7,2,13,0.00
2013-4-19,57.2,38.0,24.1,24.3,13.4,4.6,47,37,26,30.00,29.80,10,3,20,0.00
2013-4-20,56.4,39.4,25.0,23.0,14.7,6.6,45,37,27,30.06,29.94,6,2,9,0.00
2013-4-21,55.4,38.1,27.0,26.0,16.8,9.4,57,43,29,30.06,29.97,7,2,13,0.00
2013-4-22,60.0,42.4,27.9,29.3,21.9,13.8,68,46,29,30.18,30.03,6,2,10,0.08
2013-4-23,44.1,38.5,34.9,36.3,27.8,17.0,90,66,45,30.15,29.97,6,2,10,0.04
2013-4-24,44.4,37.6,34.2,37.6,34.0,31.0,100,87,66,29.97,29.50,3,1,7,0.00
2013-4-25,46.4,38.0,30.2,31.1,15.7,4.3,92,43,29,29.53,29.41,14,6,27,0.00
2013-4-26,45.6,34.8,27.7,16.0,8.7,1.6,47,33,30,29.47,29.18,16,6,31,0.00
2013-4-27,46.8,37.2,30.0,17.0,11.4,6.3,40,34,28,29.59,29.18,13,8,29,0.00
2013-4-28,49.5,36.8,26.4,16.9,8.3,1.1,34,30,27,29.83,29.59,10,6,19,0.00
2013-4-29,48.2,36.8,26.1,19.9,11.8,4.3,48,35,30,29.85,29.77,6,3,12,0.00
2013-4-30,47.0,37.2,27.9,29.7,21.1,15.8,79,52,41,29.80,29.50,6,3,12,0.00
2013-5-1,57.9,39.7,26.4,25.8,20.1,14.3,81,48,28,29.50,29.24,9,3,15,0.00
2013-5-2,45.1,38.4,33.4,37.5,29.6,20.3,83,71,53,29.56,29.29,7,2,13,0.00
2013-5-3,46.2,41.2,35.4,38.1,32.8,25.8,96,74,48,29.62,29.47,10,3,24,0.00
2013-5-4,41.9,35.6,32.5,35.9,34.2,32.5,100,95,76,29.62,29.41,5,1,8,0.00
2013-5-5,53.5,40.5,31.6,35.5,28.0,21.9,100,66,35,29.80,29.62,5,1,7,0.00
2013-5-6,54.3,42.2,30.4,27.3,23.8,19.2,71,50,34,29.91,29.77,6,2,8,0.00
2013-5-7,53.8,41.7,28.4,31.8,25.0,16.6,76,53,38,29.94,29.91,6,1,9,0.00
2013-5-8,65.4,45.8,30.2,33.1,27.3,20.9,77,51,28,29.94,29.88,6,2,9,0.00
2013-5-9,58.5,46.7,34.3,31.6,26.1,19.6,60,45,36,29.97,29.88,6,2,12,0.00
2013-5-10,66.5,51.5,33.0,37.2,29.5,23.0,69,45,28,29.91,29.62,3,2,7,0.00
2013-5-11,65.8,51.3,37.6,37.1,31.4,25.1,65,47,35,29.62,29.29,5,1,9,0.00
2013-5-12,55.6,47.9,41.0,46.7,40.6,31.5,96,76,53,29.32,29.18,3,1,7,0.00
2013-5-13,59.1,46.6,34.5,42.7,36.8,24.3,100,72,40,29.18,29.12,6,1,9,0.00
2013-5-14,45.1,36.7,27.2,33.5,25.1,16.8,85,64,42,29.35,29.15,6,2,9,0.00
2013-5-15,57.7,43.1,32.5,35.6,28.3,21.8,92,60,35,29.47,29.35,9,3,17,0.00
2013-5-16,48.4,43.2,38.8,32.3,27.8,21.6,67,54,48,29.47,29.12,8,4,17,0.00
2013-5-17,41.2,36.4,32.4,37.5,34.1,30.9,100,91,67,29.20,29.09,3,1,8,0.00
2013-5-18,47.5,34.3,26.4,32.2,25.7,17.8,100,74,43,29.83,29.20,5,1,9,0.00
2013-5-19,58.2,40.4,21.6,28.3,19.0,9.8,72,43,30,30.24,29.83,6,2,8,0.00
2013-5-20,62.2,44.9,26.1,30.1,22.5,14.7,70,43,27,30.30,30.15,5,2,8,0.00
2013-5-21,63.0,46.4,27.1,33.1,25.7,17.9,75,46,28,30.24,29.94,6,2,9,0.00
2013-5-22,67.0,48.3,31.8,37.9,30.3,20.2,73,52,31,29.94,29.77,5,2,9,0.00
2013-5-23,65.3,51.1,39.4,45.4,38.8,34.4,92,65,42,29.83,29.77,5,1,7,0.00
2013-5-24,78.9,57.5,40.6,43.2,37.3,31.0,78,51,25,29.80,29.65,5,1,8,0.00
2013-5-25,78.8,59.1,37.8,41.4,32.6,19.6,74,41,21,29.71,29.56,7,2,12,0.00
2013-5-26,70.9,54.2,35.4,40.0,32.8,19.0,75,46,29,29.62,29.53,5,1,8,0.00
2013-5-27,86.5,63.2,39.7,47.0,40.0,33.9,84,47,19,29.59,29.47,5,1,13,0.00
2013-5-28,87.0,63.0,40.3,49.7,41.0,29.8,86,49,24,29.50,29.35,5,1,8,0.00
2013-5-29,88.0,67.7,49.5,48.1,39.8,30.0,54,38,22,29.47,29.35,3,1,7,0.00
2013-5-30,77.7,61.6,44.1,48.2,41.3,36.6,83,51,31,29.68,29.47,5,2,10,0.00
2013-5-31,70.5,55.7,41.0,50.1,42.5,36.3,92,63,41,29.83,29.68,5,1,8,0.00
2013-6-1,60.3,52.4,46.9,46.4,43.8,42.3,91,73,54,29.88,29.83,2,1,7,0.00
2013-6-2,57.6,49.3,45.5,49.7,45.0,41.6,96,86,64,29.94,29.77,5,1,8,0.41
2013-6-3,64.0,52.9,43.0,44.3,38.5,32.7,87,61,38,29.77,29.47,6,2,12,0.00
2013-6-4,71.1,54.2,44.5,44.3,36.8,29.2,81,54,33,29.53,29.38,6,2,17,0.00
2013-6-5,71.4,53.3,35.6,41.0,34.3,26.6,85,51,32,29.65,29.53,5,2,9,0.00
2013-6-6,75.4,57.3,37.6,43.2,35.8,27.6,74,47,28,29.65,29.35,5,2,10,0.00
2013-6-7,80.1,58.3,38.9,47.3,40.5,33.9,85,54,30,29.62,29.38,7,1,15,0.00
2013-6-8,80.2,61.7,42.3,48.5,42.1,36.8,85,52,32,29.80,29.62,5,1,9,0.00
2013-6-9,81.7,64.7,45.0,48.4,43.7,37.2,84,51,24,29.85,29.77,5,1,9,0.00
2013-6-10,79.3,63.0,46.0,49.8,42.7,37.0,86,51,31,29.94,29.77,5,0,9,0.00
2013-6-11,83.6,64.7,48.6,50.0,44.1,38.5,82,50,29,29.83,29.65,5,1,8,0.00
2013-6-12,88.3,65.3,48.0,47.0,41.2,33.1,72,45,21,29.68,29.62,5,1,9,0.00
2013-6-13,76.8,62.4,47.8,47.1,41.9,34.4,75,49,32,29.85,29.65,6,1,7,0.00
2013-6-14,79.6,61.4,42.8,50.3,43.3,38.0,91,56,30,29.94,29.83,3,1,7,0.00
2013-6-15,80.8,63.0,45.5,52.5,46.9,39.0,92,59,33,30.00,29.88,3,1,8,0.00
2013-6-16,90.6,69.0,50.5,56.8,51.1,44.2,87,57,31,29.94,29.80,3,1,6,0.00
2013-6-17,94.1,71.8,54.7,58.7,52.2,43.8,82,53,29,29.83,29.56,3,1,6,0.00
2013-6-18,87.8,75.7,59.4,51.8,40.9,34.9,72,30,22,29.59,29.47,10,4,26,0.00
2013-6-19,82.2,66.1,53.1,47.7,42.1,36.7,69,43,30,29.68,29.59,7,2,17,0.13
2013-6-20,79.4,62.3,46.4,53.7,46.4,38.2,86,58,37,29.71,29.62,6,1,12,0.00
2013-6-21,66.6,55.4,46.9,48.7,44.8,38.3,87,69,44,29.80,29.71,3,1,9,0.00
2013-6-22,79.3,58.8,41.5,48.5,44.1,39.1,93,62,30,29.74,29.47,5,1,10,0.00
2013-6-23,75.6,61.8,47.7,48.9,43.3,38.1,70,52,35,29.50,29.35,3,1,7,0.00
2013-6-24,81.3,64.4,53.1,54.7,46.5,39.0,68,53,38,29.41,29.29,6,1,9,0.00
2013-6-25,82.0,65.8,50.5,56.4,50.4,45.1,92,61,34,29.35,29.29,3,1,6,0.00
2013-6-26,88.1,69.5,53.2,59.4,51.9,45.3,92,58,30,29.59,29.29,5,1,7,0.00
2013-6-27,77.0,64.1,52.3,56.9,52.1,45.2,87,67,44,29.74,29.59,3,1,6,0.00
2013-6-28,61.0,57.9,55.6,56.2,53.3,51.1,91,85,76,29.88,29.74,2,0,4,0.00
2013-6-29,70.2,59.9,53.8,56.3,53.4,51.3,96,80,56,29.83,29.68,3,0,58,0.00
2013-6-30,61.2,57.3,53.4,54.5,51.5,49.8,94,81,71,29.77,29.53,2,0,5,0.00
2013-7-1,62.4,55.2,51.1,53.2,48.4,37.0,96,80,53,29.53,29.29,5,1,12,0.00
2013-7-2,64.0,56.5,49.5,48.9,43.8,36.1,75,63,52,29.59,29.29,6,1,9,0.00
2013-7-3,67.2,55.6,48.6,50.2,46.0,40.6,94,72,45,29.71,29.59,2,0,6,0.00
2013-7-4,57.7,53.4,49.1,50.0,46.7,40.5,87,78,64,29.77,29.68,2,0,5,0.04
2013-7-5,68.9,55.9,48.0,49.9,46.6,42.6,94,73,43,29.77,29.71,3,0,6,0.00
2013-7-6,67.5,56.7,50.5,50.8,45.3,40.8,80,66,50,29.74,29.47,6,1,13,0.00
2013-7-7,75.6,60.3,52.5,50.3,44.6,40.3,84,57,36,29.47,29.29,7,3,13,0.00
2013-7-8,66.7,53.8,49.6,51.4,48.4,45.9,94,83,52,29.56,29.38,2,0,5,0.09
2013-7-9,72.3,58.6,50.7,53.7,48.8,42.2,95,73,38,29.74,29.53,3,1,7,0.00
2013-7-10,76.7,60.7,51.6,57.6,51.8,46.9,93,75,42,29.77,29.62,5,1,7,0.12
2013-7-11,82.3,65.5,55.2,55.0,51.4,45.7,88,64,32,29.65,29.59,5,1,8,0.00
2013-7-12,82.7,65.0,52.2,56.4,50.8,46.2,85,63,36,29.68,29.59,3,1,7,0.00
2013-7-13,79.9,66.0,55.4,56.9,52.9,48.2,94,66,38,29.85,29.65,3,1,8,0.00
2013-7-14,74.2,62.0,50.5,55.3,51.7,48.0,94,71,46,29.97,29.85,3,1,8,0.00
2013-7-15,62.8,58.6,54.9,53.2,51.1,48.0,87,76,69,30.03,29.91,2,0,6,0.00
2013-7-16,71.3,61.3,54.1,56.8,54.0,52.2,97,78,54,29.91,29.83,2,0,5,0.00
2013-7-17,70.0,63.7,57.2,58.4,55.7,52.5,92,76,63,29.83,29.74,2,0,5,0.00
2013-7-18,74.1,64.6,56.1,60.9,57.3,53.5,95,78,57,29.83,29.77,3,0,6,0.00
2013-7-19,76.9,65.8,58.5,58.2,54.1,51.3,87,67,43,29.88,29.80,3,1,115,0.00
2013-7-20,74.8,62.8,55.4,57.2,51.7,45.5,92,70,39,29.83,29.71,5,1,9,0.00
2013-7-21,82.9,64.8,49.5,53.9,48.0,40.4,93,60,30,29.74,29.62,7,1,16,0.00
2013-7-22,85.3,69.4,55.0,51.3,46.6,41.1,68,45,30,29.80,29.65,7,1,14,0.04
2013-7-23,84.1,66.1,53.2,56.1,50.5,46.0,83,60,36,29.83,29.71,3,0,6,0.00
2013-7-24,85.5,67.6,52.9,58.4,52.7,48.1,92,62,37,29.77,29.62,2,0,6,0.00
2013-7-25,81.8,67.4,59.5,58.3,55.2,51.4,90,67,41,29.77,29.65,2,0,6,0.00
2013-7-26,77.9,64.8,57.4,60.7,56.9,54.2,90,77,50,29.97,29.74,3,0,8,0.00
2013-7-27,71.3,64.7,59.0,59.5,57.3,55.1,90,77,64,30.03,29.94,2,0,115,0.00
2013-7-28,83.1,67.4,59.4,62.0,57.5,54.2,89,72,45,29.97,29.83,2,0,6,0.00
2013-7-29,81.7,66.8,53.8,61.8,57.3,52.4,97,74,44,29.88,29.80,1,0,6,0.04
2013-7-30,81.7,67.2,54.9,61.7,57.2,53.5,97,73,42,29.91,29.83,1,0,6,0.00
2013-7-31,79.6,65.5,54.5,59.7,56.1,51.7,96,74,46,29.88,29.77,2,0,6,0.00
2013-8-1,78.5,64.2,54.1,59.5,55.2,51.1,93,74,46,29.83,29.65,0,0,5,0.00
2013-8-2,75.1,62.0,48.8,55.1,50.4,45.1,96,69,44,29.71,29.47,3,0,115,0.00
2013-8-3,71.5,64.2,59.7,47.3,43.5,41.1,57,47,40,29.59,29.47,7,2,16,0.00
2013-8-4,68.4,61.8,56.3,52.7,47.7,42.0,72,60,49,29.68,29.59,1,0,5,0.00
2013-8-5,72.7,61.4,52.9,52.1,48.5,44.4,84,64,47,29.68,29.62,2,0,6,0.00
2013-8-6,69.1,61.9,56.1,48.2,45.0,42.6,67,54,41,29.68,29.59,7,1,13,0.00
2013-8-7,66.0,58.8,54.3,54.0,48.4,43.7,92,69,53,29.62,29.44,3,0,9,0.00
2013-8-8,75.1,59.9,34.2,56.2,49.3,24.3,93,69,47,29.53,29.41,5,0,10,0.00
2013-8-9,65.1,55.6,50.5,50.1,46.2,41.1,89,72,45,29.53,29.41,8,2,16,0.12
2013-8-10,74.3,57.3,51.4,59.3,50.9,44.1,96,80,51,29.68,29.44,6,0,10,0.55
2013-8-11,61.7,57.0,51.8,57.9,54.6,49.8,97,92,84,29.71,29.65,0,0,3,0.09
2013-8-12,72.1,61.8,55.0,61.3,57.9,55.0,100,88,64,29.74,29.68,1,0,5,0.04
2013-8-13,75.9,62.6,56.1,59.7,55.0,51.5,94,78,51,29.71,29.62,3,0,6,0.00
2013-8-14,61.3,57.2,54.8,53.2,51.5,48.8,93,82,69,29.74,29.59,0,0,115,0.00
2013-8-15,76.7,59.6,52.5,54.1,51.1,46.0,95,76,41,29.59,29.47,1,0,6,0.00
2013-8-16,59.5,56.2,54.7,54.5,49.3,47.6,95,78,74,29.47,29.35,1,0,6,0.00
2013-8-17,71.6,59.0,51.6,57.3,53.0,48.6,100,82,60,29.38,29.24,1,0,7,0.09
2013-8-18,63.0,55.9,51.6,58.2,53.7,49.9,97,92,80,29.38,29.18,2,0,6,0.37
2013-8-19,55.0,53.6,50.7,53.3,49.6,45.3,95,87,73,29.47,29.35,2,0,58,0.45
2013-8-20,59.2,53.7,50.0,54.5,51.9,49.2,100,94,81,29.56,29.44,2,0,7,0.17
2013-8-21,57.4,52.6,49.1,54.1,50.7,48.1,100,94,77,29.56,29.47,3,0,7,0.33
2013-8-22,57.0,52.9,49.8,53.9,51.0,48.4,97,93,84,29.47,29.38,3,0,9,0.33
2013-8-23,70.0,55.8,50.7,57.7,52.6,49.9,100,90,57,29.41,29.24,2,0,7,0.59
2013-8-24,69.3,53.2,41.7,56.7,47.9,41.7,100,84,50,29.38,29.26,6,0,12,0.05
2013-8-25,74.5,54.9,39.7,49.6,42.5,34.3,88,65,41,29.47,29.38,5,0,10,0.00
2013-8-26,74.8,55.1,43.5,50.7,45.2,39.9,92,72,41,29.47,29.41,2,0,6,0.00
2013-8-27,65.4,54.4,46.9,52.5,47.9,43.4,94,80,55,29.50,29.44,1,0,7,0.16
2013-8-28,63.1,54.8,50.5,56.4,51.2,48.0,100,88,65,29.44,29.29,2,0,8,0.51
2013-8-29,59.7,54.4,50.7,54.1,49.9,47.4,94,85,71,29.56,29.24,3,1,12,0.00
2013-8-30,58.6,53.5,49.5,54.4,51.1,47.5,100,92,84,29.65,29.56,0,0,3,0.04
2013-8-31,56.1,52.0,48.4,54.4,50.5,47.1,97,95,92,29.62,29.53,1,0,5,0.09
2013-9-1,57.2,52.4,36.2,54.9,51.4,36.2,100,96,88,29.59,29.41,2,0,9,0.24
2013-9-2,60.6,54.8,51.6,52.0,49.6,44.2,97,83,57,29.44,29.24,8,3,16,0.50
2013-9-3,66.4,57.3,51.8,50.9,45.5,40.9,87,65,45,29.26,29.00,9,3,115,0.00
2013-9-4,58.3,52.5,48.7,54.2,48.2,41.0,96,86,58,29.50,29.12,6,0,13,0.37
2013-9-5,66.1,51.1,43.3,51.8,45.4,39.4,100,83,45,29.71,29.47,2,0,8,0.00
2013-9-6,58.2,49.2,41.5,45.4,42.0,39.3,94,77,58,29.71,29.15,8,3,18,0.09
2013-9-7,63.9,54.9,48.9,57.4,48.7,43.1,93,80,64,29.35,29.18,6,1,12,0.04
2013-9-9,61.3,55.8,50.1,51.6,41.6,39.1,93,60,48,29.47,29.20,9,4,17,0.04
2013-9-10,57.0,53.2,50.0,51.0,47.4,43.2,94,81,69,29.47,29.41,6,1,15,0.00
2013-9-11,53.4,50.3,48.2,52.4,49.3,47.4,100,97,92,29.59,29.29,2,0,6,0.76
2013-9-12,66.4,51.3,42.1,51.5,46.9,42.1,100,86,52,29.68,29.59,3,0,6,0.00
2013-9-13,62.7,52.2,46.9,50.6,47.0,43.2,95,84,53,29.65,29.59,5,1,8,0.16
2013-9-14,71.1,49.2,37.6,52.8,44.9,37.6,100,87,48,29.62,29.53,1,0,6,0.00
2013-9-15,67.5,47.0,36.7,48.0,41.7,36.3,100,85,42,29.59,29.41,2,0,6,0.00
2013-9-16,60.5,44.2,33.8,44.3,39.1,33.0,100,84,45,29.41,29.20,1,0,5,0.00
2013-9-17,52.3,47.2,43.5,44.4,42.9,41.3,95,86,70,29.24,29.18,2,0,6,0.00
2013-9-18,53.1,46.7,44.1,48.0,44.8,42.9,100,93,75,29.32,29.24,1,0,5,0.21
2013-9-19,57.0,43.9,31.8,43.9,39.2,28.3,100,86,42,29.32,29.12,1,0,5,0.20
2013-9-20,56.8,35.4,25.2,34.5,27.7,22.6,93,76,41,29.12,28.76,2,0,5,0.00
2013-9-21,48.4,39.8,29.8,36.0,29.7,25.2,87,68,53,28.79,28.64,3,0,10,0.00
2013-9-22,43.7,38.9,35.4,34.5,32.5,30.6,90,78,62,29.00,28.64,2,0,7,0.00
2013-9-23,39.8,35.5,32.5,37.8,33.5,30.4,97,92,88,29.47,29.00,0,0,3,0.09
2013-9-24,46.2,37.6,31.5,41.3,35.4,30.7,100,93,58,29.68,29.47,3,0,10,0.00
2013-9-25,52.2,47.1,40.8,44.6,39.4,31.5,92,75,57,29.50,29.15,9,2,20,0.25
2013-9-26,50.0,45.9,43.0,47.9,43.0,37.5,97,90,70,29.32,29.00,1,1,0,0.16
2013-9-27,57.1,47.5,37.8,40.1,37.6,34.8,90,69,49,29.00,28.73,3,1,8,0.00
2013-9-28,54.1,39.8,31.3,43.1,35.7,30.3,100,86,57,28.88,28.79,2,1,3,0.00
2013-9-29,59.5,39.4,31.1,39.8,32.5,28.4,100,79,36,29.03,28.82,3,1,7,0.00
2013-9-30,59.5,36.5,27.7,37.9,30.2,26.4,100,80,40,29.32,29.03,3,1,7,0.00
2013-10-1,59.4,39.8,31.1,38.0,31.1,28.6,100,74,38,29.53,29.29,3,0,7,0.13
2013-10-2,40.6,39.7,38.8,37.3,36.3,34.0,93,88,77,29.50,29.47,2,0,4,0.00